Time;durP1;ratioP1;P1;durP2;ratioP2;P2;SDS_P1;SDS_P2;PMS_P1;PMS_P2;Temp;Humidity;BMP_temperature;BMP_pressure;BME280_temperature;BME280_humidity;BME280_pressure;Samples;Min_cycle;Max_cycle;Signal;HPM_P1;HPM_P2
2022/09/17 00:01:52;;;;;;;0.82;0.57;;;23.50;58.10;;;;;;5052819;28;20020;-49
2022/09/17 00:04:18;;;;;;;0.57;0.43;;;23.50;57.80;;;;;;5053056;28;20074;-48
2022/09/17 00:06:43;;;;;;;0.88;0.60;;;23.50;57.80;;;;;;5057966;28;20108;-49
2022/09/17 00:09:09;;;;;;;1.65;0.80;;;23.50;57.50;;;;;;5065876;28;20059;-49
2022/09/17 00:11:38;;;;;;;1.85;0.70;;;23.50;57.40;;;;;;5025417;28;20057;-50
2022/09/17 00:14:06;;;;;;;1.20;0.63;;;23.50;57.00;;;;;;5013103;28;20026;-50
2022/09/17 00:16:36;;;;;;;0.80;0.60;;;23.50;57.40;;;;;;5016043;28;20057;-49
2022/09/17 00:19:04;;;;;;;0.70;0.47;;;23.50;56.90;;;;;;5039700;28;20034;-49
2022/09/17 00:21:30;;;;;;;0.80;0.60;;;23.50;56.70;;;;;;5032973;28;20029;-52
2022/09/17 00:23:58;;;;;;;1.90;0.60;;;23.50;57.00;;;;;;5044031;28;20040;-49
2022/09/17 00:26:25;;;;;;;1.98;0.60;;;23.50;56.90;;;;;;5047025;28;20034;-52
2022/09/17 00:28:52;;;;;;;2.38;0.60;;;23.40;56.30;;;;;;5015246;28;20038;-53
2022/09/17 00:31:18;;;;;;;1.20;0.70;;;23.50;56.90;;;;;;5032419;28;20033;-49
2022/09/17 00:33:44;;;;;;;1.10;0.65;;;23.50;56.50;;;;;;5031555;28;20074;-49
2022/09/17 00:36:10;;;;;;;0.75;0.60;;;23.50;56.20;;;;;;5045140;28;20059;-49
2022/09/17 00:38:36;;;;;;;2.65;0.90;;;23.50;56.40;;;;;;5035217;28;20101;-48
2022/09/17 00:41:02;;;;;;;1.15;0.60;;;23.50;56.50;;;;;;5041409;28;20036;-49
2022/09/17 00:43:32;;;;;;;1.30;0.70;;;23.50;56.80;;;;;;5043112;28;20433;-50
2022/09/17 00:45:58;;;;;;;1.85;0.60;;;23.50;56.90;;;;;;5030200;28;20032;-51
2022/09/17 00:48:24;;;;;;;0.93;0.63;;;23.50;56.90;;;;;;5049155;28;20421;-53
2022/09/17 00:50:51;;;;;;;1.38;0.60;;;23.40;56.90;;;;;;5049443;28;20125;-49
2022/09/17 00:53:20;;;;;;;1.27;0.60;;;23.50;56.70;;;;;;5046806;28;20022;-50
2022/09/17 00:55:52;;;;;;;1.40;0.95;;;23.50;56.90;;;;;;5047975;28;20029;-50
2022/09/17 00:58:21;;;;;;;0.50;0.50;;;23.50;57.10;;;;;;5024724;28;20024;-49
2022/09/17 01:00:47;;;;;;;2.70;1.05;;;23.40;57.20;;;;;;5029143;28;20029;-49
2022/09/17 01:03:12;;;;;;;0.70;0.50;;;23.40;57.10;;;;;;5048279;28;20032;-50
2022/09/17 01:05:41;;;;;;;1.00;0.75;;;23.40;56.60;;;;;;5041819;28;20025;-49
2022/09/17 01:08:35;;;;;;;0.65;0.55;;;23.50;56.40;;;;;;5032080;28;20053;-49
2022/09/17 01:11:36;;;;;;;1.20;0.55;;;23.40;56.70;;;;;;5029327;28;20509;-51
2022/09/17 01:14:32;;;;;;;1.13;0.63;;;23.40;56.10;;;;;;5029502;28;20041;-50
2022/09/17 01:17:15;;;;;;;2.40;1.05;;;23.40;56.50;;;;;;5048563;28;20569;-52
2022/09/17 01:20:15;;;;;;;0.52;0.50;;;23.40;55.90;;;;;;5050785;28;20033;-51
2022/09/17 01:22:50;;;;;;;1.05;0.70;;;23.40;56.10;;;;;;5069422;28;20036;-50
2022/09/17 01:25:25;;;;;;;0.98;0.40;;;23.40;56.00;;;;;;5055264;28;20033;-52
2022/09/17 01:28:11;;;;;;;1.70;0.75;;;23.40;56.30;;;;;;5050909;28;20025;-52
2022/09/17 01:30:59;;;;;;;0.95;0.50;;;23.50;55.80;;;;;;5051686;28;20041;-50
2022/09/17 01:34:00;;;;;;;1.00;0.60;;;23.40;56.00;;;;;;5046286;28;20036;-51
2022/09/17 01:36:32;;;;;;;1.13;0.55;;;23.40;55.90;;;;;;5055273;28;20037;-51
2022/09/17 01:39:10;;;;;;;1.35;0.60;;;23.40;56.10;;;;;;5055739;28;20407;-49
2022/09/17 01:41:51;;;;;;;0.85;0.70;;;23.40;55.30;;;;;;5055998;28;20114;-48
2022/09/17 01:44:38;;;;;;;0.98;0.80;;;23.40;56.00;;;;;;5071176;28;20125;-53
2022/09/17 01:47:11;;;;;;;1.30;0.73;;;23.40;56.00;;;;;;5074749;28;20028;-51
2022/09/17 01:49:38;;;;;;;1.00;0.50;;;23.40;55.80;;;;;;5073743;28;20125;-50
2022/09/17 01:52:06;;;;;;;1.63;0.70;;;23.40;55.60;;;;;;5060443;28;20049;-49
2022/09/17 01:54:41;;;;;;;0.95;0.55;;;23.40;55.40;;;;;;5054676;28;20060;-51
2022/09/17 01:57:25;;;;;;;1.50;0.60;;;23.40;55.80;;;;;;5056441;28;20036;-49
2022/09/17 02:00:00;;;;;;;0.77;0.60;;;23.40;55.90;;;;;;5073953;28;20606;-49
2022/09/17 02:02:39;;;;;;;2.03;0.80;;;23.40;55.20;;;;;;5051674;28;20462;-49
2022/09/17 02:05:10;;;;;;;1.33;0.68;;;23.40;55.10;;;;;;5070102;28;20044;-50
2022/09/17 02:07:41;;;;;;;1.30;0.70;;;23.40;55.50;;;;;;5048928;28;20032;-50
2022/09/17 02:10:19;;;;;;;1.13;0.73;;;23.40;54.90;;;;;;5056212;28;20362;-53
2022/09/17 02:12:52;;;;;;;1.55;0.77;;;23.40;54.90;;;;;;5070854;28;20169;-53
2022/09/17 02:15:26;;;;;;;0.93;0.70;;;23.40;55.00;;;;;;5068575;28;20040;-49
2022/09/17 02:18:23;;;;;;;3.45;0.70;;;23.40;55.10;;;;;;5071960;28;20106;-51
2022/09/17 02:20:55;;;;;;;1.48;0.65;;;23.40;55.50;;;;;;5054997;28;20470;-49
2022/09/17 02:23:28;;;;;;;1.27;0.75;;;23.40;55.20;;;;;;5053171;28;20030;-49
2022/09/17 02:26:05;;;;;;;0.90;0.60;;;23.40;54.90;;;;;;5053300;28;20013;-53
2022/09/17 02:28:47;;;;;;;0.90;0.50;;;23.40;54.60;;;;;;5073190;28;20052;-53
2022/09/17 02:31:13;;;;;;;1.50;0.70;;;23.40;54.50;;;;;;5073899;28;20539;-49
2022/09/17 02:33:40;;;;;;;1.00;0.60;;;23.40;57.30;;;;;;5072942;28;20072;-51
2022/09/17 02:36:06;;;;;;;1.30;0.80;;;23.40;57.90;;;;;;5059271;28;20484;-49
2022/09/17 02:38:32;;;;;;;0.95;0.50;;;23.50;58.20;;;;;;5054152;28;20032;-53
2022/09/17 02:41:17;;;;;;;0.40;0.40;;;23.50;58.30;;;;;;5050268;28;20389;-51
2022/09/17 02:43:48;;;;;;;1.40;0.70;;;23.40;58.50;;;;;;5055652;28;20035;-49
2022/09/17 02:46:25;;;;;;;0.50;0.50;;;23.50;58.50;;;;;;5072264;28;20393;-53
2022/09/17 02:49:00;;;;;;;1.70;0.60;;;23.40;58.50;;;;;;5053594;28;20768;-50
2022/09/17 02:51:44;;;;;;;2.67;0.60;;;23.40;58.60;;;;;;5073746;28;20179;-51
2022/09/17 02:54:42;;;;;;;1.80;0.70;;;23.40;58.50;;;;;;5073747;28;20381;-51
2022/09/17 02:57:31;;;;;;;1.10;0.50;;;23.50;58.50;;;;;;5051248;28;20037;-52
2022/09/17 03:00:14;;;;;;;2.88;0.70;;;23.50;58.60;;;;;;5052741;28;20025;-52
2022/09/17 03:02:45;;;;;;;1.05;0.60;;;23.50;58.60;;;;;;5053373;28;20021;-53
2022/09/17 03:05:13;;;;;;;3.03;0.90;;;23.40;59.00;;;;;;5055985;28;20091;-53
2022/09/17 03:07:39;;;;;;;0.50;0.50;;;23.40;58.50;;;;;;5054652;28;20433;-53
2022/09/17 03:10:05;;;;;;;1.63;0.90;;;23.40;58.50;;;;;;5053929;28;20056;-53
2022/09/17 03:12:31;;;;;;;1.30;0.82;;;23.40;58.40;;;;;;5068608;28;20029;-54
2022/09/17 03:14:57;;;;;;;1.88;1.08;;;23.40;58.40;;;;;;5061886;28;21939;-53
2022/09/17 03:17:23;;;;;;;1.02;0.50;;;23.40;58.40;;;;;;5050430;28;20041;-52
2022/09/17 03:19:49;;;;;;;0.73;0.50;;;23.40;58.20;;;;;;5052615;28;20398;-53
2022/09/17 03:22:14;;;;;;;0.85;0.50;;;23.40;58.20;;;;;;5035889;28;20036;-52
2022/09/17 03:24:40;;;;;;;1.40;0.68;;;23.40;58.00;;;;;;5060390;28;20047;-49
2022/09/17 03:27:05;;;;;;;1.05;0.45;;;23.40;57.80;;;;;;5054949;28;20021;-52
2022/09/17 03:29:31;;;;;;;1.17;0.50;;;23.40;58.20;;;;;;5053429;28;20540;-53
2022/09/17 03:31:56;;;;;;;1.20;0.50;;;23.40;58.20;;;;;;5049651;28;20041;-53
2022/09/17 03:34:22;;;;;;;2.58;0.80;;;23.40;58.10;;;;;;5061571;28;20087;-52
2022/09/17 03:36:48;;;;;;;1.77;0.50;;;23.40;58.10;;;;;;5052657;28;20112;-50
2022/09/17 03:39:14;;;;;;;1.88;0.60;;;23.40;58.10;;;;;;5053569;28;20021;-53
2022/09/17 03:41:39;;;;;;;0.60;0.47;;;23.40;58.00;;;;;;5052690;28;20363;-52
2022/09/17 03:44:05;;;;;;;1.88;0.50;;;23.40;57.80;;;;;;5062570;28;20029;-54
2022/09/17 03:46:31;;;;;;;2.08;0.70;;;23.40;57.80;;;;;;5071293;28;20051;-52
2022/09/17 03:48:56;;;;;;;0.68;0.50;;;23.40;57.80;;;;;;5047195;28;20098;-53
2022/09/17 03:51:22;;;;;;;1.33;0.70;;;23.40;57.70;;;;;;5052714;28;20047;-49
2022/09/17 03:53:47;;;;;;;0.73;0.55;;;23.40;57.80;;;;;;5063238;28;20046;-53
2022/09/17 03:56:13;;;;;;;2.92;0.73;;;23.40;57.70;;;;;;5070682;28;20373;-53
2022/09/17 03:58:39;;;;;;;1.77;0.55;;;23.40;57.50;;;;;;5070949;28;20043;-52
2022/09/17 04:01:05;;;;;;;1.52;1.00;;;23.40;57.70;;;;;;5063172;28;20108;-49
2022/09/17 04:03:31;;;;;;;1.08;0.60;;;23.40;57.60;;;;;;5050299;28;20470;-48
2022/09/17 04:05:56;;;;;;;0.65;0.50;;;23.40;57.70;;;;;;5049765;28;20037;-49
2022/09/17 04:08:22;;;;;;;1.67;0.55;;;23.40;57.60;;;;;;5052400;28;20032;-54
2022/09/17 04:10:50;;;;;;;0.40;0.40;;;23.40;57.50;;;;;;5034708;28;20572;-52
2022/09/17 04:13:17;;;;;;;1.48;0.70;;;23.40;57.40;;;;;;5046971;28;20079;-53
2022/09/17 04:15:44;;;;;;;1.52;0.80;;;23.40;57.30;;;;;;5050201;28;20025;-51
2022/09/17 04:18:10;;;;;;;2.75;0.68;;;23.40;57.20;;;;;;5051923;28;20029;-53
2022/09/17 04:20:36;;;;;;;0.73;0.60;;;23.40;57.30;;;;;;5039992;28;20028;-53
2022/09/17 04:23:02;;;;;;;2.75;0.60;;;23.40;57.20;;;;;;5032138;28;20036;-53
2022/09/17 04:25:27;;;;;;;1.23;0.50;;;23.40;57.10;;;;;;5033693;28;20037;-53
2022/09/17 04:27:53;;;;;;;0.98;0.50;;;23.40;56.90;;;;;;5031590;28;20030;-52
2022/09/17 04:30:19;;;;;;;1.30;0.63;;;23.40;57.00;;;;;;5032691;28;20417;-51
2022/09/17 04:32:45;;;;;;;1.48;0.57;;;23.40;56.90;;;;;;5047890;28;20033;-54
2022/09/17 04:35:11;;;;;;;1.38;0.43;;;23.40;56.90;;;;;;5034937;28;20389;-51
2022/09/17 04:37:37;;;;;;;0.73;0.40;;;23.40;56.80;;;;;;5044004;28;20029;-52
2022/09/17 04:40:04;;;;;;;2.15;0.82;;;23.40;55.70;;;;;;5028749;28;20026;-54
2022/09/17 04:42:29;;;;;;;0.95;0.50;;;23.40;56.90;;;;;;5051103;28;20485;-50
2022/09/17 04:44:55;;;;;;;1.75;0.55;;;23.40;56.80;;;;;;5049337;28;20023;-53
2022/09/17 04:47:21;;;;;;;1.50;0.57;;;23.40;57.00;;;;;;5051781;28;20036;-53
2022/09/17 04:49:46;;;;;;;1.17;0.70;;;23.40;55.40;;;;;;5049872;28;20044;-51
2022/09/17 04:52:12;;;;;;;0.80;0.50;;;23.40;56.60;;;;;;5036379;28;20033;-53
2022/09/17 04:54:38;;;;;;;0.80;0.50;;;23.40;56.50;;;;;;5049964;28;20036;-53
2022/09/17 04:57:04;;;;;;;1.48;0.63;;;23.40;55.90;;;;;;5030081;28;20030;-51
2022/09/17 04:59:29;;;;;;;1.42;0.60;;;23.40;56.50;;;;;;5034062;28;20409;-54
2022/09/17 05:01:55;;;;;;;2.55;0.40;;;23.40;56.60;;;;;;5050465;28;20036;-53
2022/09/17 05:04:21;;;;;;;1.05;0.47;;;23.40;56.60;;;;;;5049689;28;20029;-54
2022/09/17 05:06:46;;;;;;;1.85;0.63;;;23.40;56.60;;;;;;5032816;28;20371;-51
2022/09/17 05:09:12;;;;;;;1.38;0.60;;;23.40;56.20;;;;;;5031910;28;20049;-49
2022/09/17 05:11:38;;;;;;;1.75;0.55;;;23.40;57.10;;;;;;5031732;28;20037;-52
2022/09/17 05:14:03;;;;;;;1.73;0.50;;;23.40;56.40;;;;;;5009142;28;20040;-52
2022/09/17 05:16:29;;;;;;;2.40;0.57;;;23.40;55.60;;;;;;5033947;28;20034;-52
2022/09/17 05:18:56;;;;;;;1.98;0.50;;;23.40;55.00;;;;;;5042249;28;20546;-51
2022/09/17 05:21:22;;;;;;;1.45;0.82;;;23.40;56.20;;;;;;5050793;28;20025;-53
2022/09/17 05:23:48;;;;;;;2.92;0.80;;;23.40;56.20;;;;;;5049182;28;20029;-52
2022/09/17 05:26:14;;;;;;;1.02;0.68;;;23.40;56.30;;;;;;5050477;28;20029;-50
2022/09/17 05:28:40;;;;;;;0.88;0.50;;;23.40;56.10;;;;;;5043922;28;20099;-52
2022/09/17 05:31:05;;;;;;;1.33;0.50;;;23.40;56.10;;;;;;5015177;28;20502;-53
2022/09/17 05:33:31;;;;;;;2.05;0.70;;;23.30;54.60;;;;;;5019605;28;20018;-49
2022/09/17 05:35:57;;;;;;;2.58;0.80;;;23.40;53.20;;;;;;5031989;28;20041;-51
2022/09/17 05:38:23;;;;;;;1.75;0.50;;;23.50;53.50;;;;;;5030670;28;20033;-50
2022/09/17 05:40:49;;;;;;;1.70;0.65;;;23.50;52.80;;;;;;5026728;28;20132;-50
2022/09/17 05:43:15;;;;;;;2.50;0.60;;;23.50;52.90;;;;;;5031476;28;20040;-49
2022/09/17 05:45:40;;;;;;;2.92;0.63;;;23.60;52.90;;;;;;5023713;28;20398;-53
2022/09/17 05:48:10;;;;;;;2.72;0.70;;;23.60;52.80;;;;;;5030232;28;20047;-53
2022/09/17 05:50:36;;;;;;;1.52;0.82;;;23.60;52.70;;;;;;5023592;28;20514;-51
2022/09/17 05:53:09;;;;;;;2.75;0.70;;;23.60;53.30;;;;;;5030617;28;20030;-51
2022/09/17 05:55:35;;;;;;;2.97;0.77;;;23.70;52.80;;;;;;5028181;28;20045;-49
2022/09/17 05:58:11;;;;;;;2.75;1.05;;;23.70;53.20;;;;;;5031043;28;20040;-53
2022/09/17 06:00:38;;;;;;;1.35;0.30;;;23.70;52.40;;;;;;5032258;28;20468;-53
2022/09/17 06:03:04;;;;;;;2.45;0.70;;;23.70;52.60;;;;;;5029779;28;20037;-49
2022/09/17 06:05:29;;;;;;;2.67;0.52;;;23.80;52.40;;;;;;5024924;28;20040;-53
2022/09/17 06:07:55;;;;;;;1.85;0.63;;;23.80;52.50;;;;;;5028159;28;20101;-52
2022/09/17 06:10:21;;;;;;;1.85;0.70;;;23.80;52.40;;;;;;5026125;28;20557;-52
2022/09/17 06:12:46;;;;;;;2.75;0.82;;;23.80;52.40;;;;;;5040109;28;20425;-50
2022/09/17 06:15:13;;;;;;;2.55;0.63;;;23.90;53.30;;;;;;5040719;28;20033;-48
2022/09/17 06:17:40;;;;;;;1.42;0.70;;;23.80;52.70;;;;;;5032422;28;21529;-51
2022/09/17 06:20:06;;;;;;;1.98;0.60;;;23.80;52.00;;;;;;5026448;28;20945;-49
2022/09/17 06:22:32;;;;;;;1.30;0.73;;;23.80;51.90;;;;;;5029287;28;20371;-51
2022/09/17 06:24:59;;;;;;;2.17;0.57;;;23.90;52.00;;;;;;5028747;28;20041;-48
2022/09/17 06:27:31;;;;;;;2.08;0.80;;;23.90;51.90;;;;;;5030695;28;20037;-52
2022/09/17 06:29:56;;;;;;;1.83;0.70;;;23.90;51.80;;;;;;5031252;28;20025;-55
2022/09/17 06:32:22;;;;;;;1.38;0.50;;;23.90;52.20;;;;;;5035431;28;20052;-50
2022/09/17 06:34:48;;;;;;;2.17;0.90;;;23.90;51.70;;;;;;5031258;28;21668;-47
2022/09/17 06:37:14;;;;;;;2.25;0.65;;;23.90;52.00;;;;;;5034403;28;20044;-54
2022/09/17 06:39:40;;;;;;;1.90;0.70;;;23.90;51.60;;;;;;5031888;28;20025;-50
2022/09/17 06:42:06;;;;;;;1.65;0.60;;;23.90;51.50;;;;;;5032616;28;20095;-53
2022/09/17 06:44:31;;;;;;;0.85;0.65;;;23.90;51.30;;;;;;5031241;28;20116;-52
2022/09/17 06:46:57;;;;;;;4.43;0.70;;;23.90;51.50;;;;;;5034593;28;20033;-52
2022/09/17 06:49:23;;;;;;;1.88;0.70;;;23.90;51.50;;;;;;5033130;28;20580;-55
2022/09/17 06:51:49;;;;;;;1.90;0.80;;;23.90;51.60;;;;;;5029794;28;20060;-52
2022/09/17 06:54:14;;;;;;;1.77;0.65;;;23.90;51.50;;;;;;5038308;28;20053;-52
2022/09/17 06:56:40;;;;;;;2.95;0.85;;;23.90;51.20;;;;;;5026491;28;20518;-54
2022/09/17 06:59:06;;;;;;;2.47;0.57;;;24.00;52.10;;;;;;5025736;28;20053;-54
2022/09/17 07:01:31;;;;;;;5.07;0.65;;;24.00;52.70;;;;;;5036173;28;20040;-55
2022/09/17 07:03:57;;;;;;;1.27;0.60;;;24.00;52.70;;;;;;5052042;28;20029;-52
2022/09/17 07:06:23;;;;;;;1.48;0.90;;;24.10;52.60;;;;;;5036120;28;21602;-53
2022/09/17 07:08:49;;;;;;;7.25;0.98;;;24.10;52.70;;;;;;5033395;28;20025;-52
2022/09/17 07:11:17;;;;;;;0.80;0.50;;;24.10;53.50;;;;;;5048279;28;20041;-53
2022/09/17 07:13:42;;;;;;;3.85;0.85;;;24.20;53.30;;;;;;5072579;28;20055;-53
2022/09/17 07:16:09;;;;;;;3.80;0.80;;;24.20;53.30;;;;;;5053604;28;20064;-54
2022/09/17 07:18:34;;;;;;;4.32;1.55;;;24.20;53.30;;;;;;5053202;28;20088;-47
2022/09/17 07:21:03;;;;;;;2.20;0.90;;;24.20;53.20;;;;;;5047302;28;20056;-51
2022/09/17 07:23:30;;;;;;;3.00;1.05;;;24.20;53.20;;;;;;5052568;28;20048;-54
2022/09/17 07:26:00;;;;;;;2.10;1.02;;;24.20;53.40;;;;;;5052119;28;20025;-52
2022/09/17 07:28:27;;;;;;;3.72;1.10;;;24.20;53.40;;;;;;5049567;28;20033;-51
2022/09/17 07:30:54;;;;;;;2.72;1.02;;;24.20;53.30;;;;;;5048753;28;20037;-52
2022/09/17 07:33:23;;;;;;;4.18;1.13;;;24.20;53.30;;;;;;5051483;28;20044;-49
2022/09/17 07:36:00;;;;;;;2.95;1.27;;;24.20;53.30;;;;;;5054370;28;20056;-54
2022/09/17 07:38:27;;;;;;;6.28;0.82;;;24.20;53.70;;;;;;5060007;28;20082;-50
2022/09/17 07:40:58;;;;;;;5.93;0.88;;;24.20;52.60;;;;;;5051998;28;20040;-49
2022/09/17 07:43:29;;;;;;;5.30;0.80;;;24.20;50.20;;;;;;5054122;28;20040;-51
2022/09/17 07:45:56;;;;;;;4.73;0.90;;;24.10;50.30;;;;;;5048104;28;20021;-48
2022/09/17 07:48:23;;;;;;;2.75;0.95;;;24.20;50.80;;;;;;5052791;28;20032;-51
2022/09/17 07:50:49;;;;;;;3.88;1.48;;;24.20;51.30;;;;;;5051568;28;20045;-53
2022/09/17 07:53:17;;;;;;;8.45;1.20;;;24.20;51.70;;;;;;5051919;28;20041;-49
2022/09/17 07:55:54;;;;;;;3.85;1.08;;;24.20;52.10;;;;;;5045750;28;20075;-49
2022/09/17 07:58:27;;;;;;;4.35;0.80;;;24.30;52.20;;;;;;5051589;28;20036;-49
2022/09/17 08:00:52;;;;;;;5.10;0.90;;;24.30;52.50;;;;;;5049481;28;20037;-52
2022/09/17 08:03:18;;;;;;;11.18;0.98;;;24.30;52.20;;;;;;5051693;28;20041;-53
2022/09/17 08:05:44;;;;;;;4.47;1.02;;;24.30;52.60;;;;;;5043342;28;20024;-52
2022/09/17 08:08:10;;;;;;;4.03;1.20;;;24.30;52.40;;;;;;5053953;28;20128;-54
2022/09/17 08:10:36;;;;;;;3.28;0.95;;;24.30;52.20;;;;;;5050677;28;20128;-50
2022/09/17 08:13:01;;;;;;;6.22;1.08;;;24.30;52.00;;;;;;5050618;28;20063;-53
2022/09/17 08:15:27;;;;;;;4.85;1.15;;;24.40;52.30;;;;;;5042757;28;20455;-53
2022/09/17 08:17:53;;;;;;;4.70;1.35;;;24.30;52.20;;;;;;5037977;28;20064;-53
2022/09/17 08:20:19;;;;;;;3.85;1.50;;;24.30;52.30;;;;;;5062090;28;20421;-50
2022/09/17 08:22:45;;;;;;;4.88;1.23;;;24.40;52.30;;;;;;5049085;28;20116;-52
2022/09/17 08:25:11;;;;;;;4.63;1.40;;;24.40;52.40;;;;;;5046244;28;20109;-53
2022/09/17 08:27:40;;;;;;;4.15;0.93;;;24.40;52.50;;;;;;5052050;28;20043;-49
2022/09/17 08:30:06;;;;;;;2.10;0.77;;;24.40;52.40;;;;;;5039681;28;20037;-52
2022/09/17 08:32:32;;;;;;;3.00;0.75;;;24.40;52.40;;;;;;5047611;28;20063;-52
2022/09/17 08:34:58;;;;;;;4.80;0.95;;;24.30;52.40;;;;;;5045288;28;20038;-49
2022/09/17 08:37:27;;;;;;;4.35;1.50;;;24.40;52.40;;;;;;5047439;28;20027;-50
2022/09/17 08:39:53;;;;;;;5.88;0.80;;;24.40;52.60;;;;;;5047580;28;20087;-53
2022/09/17 08:42:40;;;;;;;3.40;0.93;;;24.40;52.50;;;;;;5060621;28;20032;-54
2022/09/17 08:45:13;;;;;;;2.45;0.85;;;24.40;52.40;;;;;;5063320;28;20490;-48
2022/09/17 08:47:43;;;;;;;3.35;1.00;;;24.40;52.50;;;;;;5051842;28;20041;-48
2022/09/17 08:50:31;;;;;;;3.00;1.00;;;24.40;52.50;;;;;;5044886;28;20518;-50
2022/09/17 08:53:29;;;;;;;3.65;0.80;;;24.40;52.50;;;;;;5060672;28;20313;-52
2022/09/17 08:56:11;;;;;;;2.00;1.15;;;24.40;52.50;;;;;;5048098;28;20056;-49
2022/09/17 08:58:39;;;;;;;;;;;24.40;52.60;;;;;;5052916;28;20089;-51
2022/09/17 09:01:11;;;;;;;8.45;0.98;;;24.40;52.50;;;;;;5061342;28;19909;-53
2022/09/17 09:03:45;;;;;;;;;;;24.40;53.00;;;;;;5059222;28;20037;-47
2022/09/17 09:06:14;;;;;;;6.13;1.00;;;24.40;53.00;;;;;;5050641;28;19916;-49
2022/09/17 09:08:57;;;;;;;6.30;1.10;;;24.50;53.70;;;;;;5056876;28;20394;-50
2022/09/17 09:11:26;;;;;;;3.03;1.13;;;24.50;53.00;;;;;;5026201;28;20076;-49
2022/09/17 09:14:09;;;;;;;3.00;0.90;;;24.50;52.90;;;;;;5029464;28;20088;-52
2022/09/17 09:16:40;;;;;;;2.22;0.88;;;24.50;53.20;;;;;;5030435;28;20034;-49
2022/09/17 09:19:26;;;;;;;7.95;1.27;;;24.50;53.50;;;;;;5029512;28;20049;-50
2022/09/17 09:22:24;;;;;;;5.38;1.33;;;24.50;53.90;;;;;;5025130;28;20041;-51
2022/09/17 09:25:25;;;;;;;5.85;0.90;;;24.50;53.80;;;;;;5029950;28;20430;-50
2022/09/17 09:28:25;;;;;;;2.95;0.95;;;24.50;53.80;;;;;;5028915;28;20041;-52
2022/09/17 09:31:19;;;;;;;1.85;0.98;;;24.50;53.80;;;;;;5028370;28;20038;-51
2022/09/17 09:33:46;;;;;;;3.40;1.50;;;24.50;53.90;;;;;;5038618;28;20042;-48
2022/09/17 09:36:14;;;;;;;5.10;1.20;;;24.50;53.70;;;;;;5025486;28;20428;-47
2022/09/17 09:38:56;;;;;;;4.28;0.90;;;24.50;53.70;;;;;;5029998;28;20057;-47
2022/09/17 09:41:53;;;;;;;10.00;1.67;;;24.60;53.70;;;;;;5023087;28;20498;-48
2022/09/17 09:44:19;;;;;;;11.68;2.05;;;24.50;55.00;;;;;;5029325;28;20048;-50
2022/09/17 09:47:11;;;;;;;13.25;2.80;;;24.60;54.50;;;;;;5046359;28;20098;-50
2022/09/17 09:50:06;;;;;;;18.05;2.67;;;24.60;54.50;;;;;;5030084;28;20422;-53
2022/09/17 09:52:58;;;;;;;8.73;1.98;;;24.50;53.40;;;;;;5024588;28;20051;-50
2022/09/17 09:55:48;;;;;;;8.27;2.30;;;24.50;52.70;;;;;;5038361;28;20109;-52
2022/09/17 09:58:33;;;;;;;8.05;3.20;;;24.50;53.20;;;;;;5024819;28;20030;-47
2022/09/17 10:00:58;;;;;;;10.70;1.67;;;24.50;52.60;;;;;;5021737;28;20037;-50
2022/09/17 10:03:31;;;;;;;10.70;2.50;;;24.50;53.10;;;;;;5033955;28;20040;-53
2022/09/17 10:06:02;;;;;;;5.80;1.67;;;24.50;52.40;;;;;;5032110;28;20040;-48
2022/09/17 10:08:30;;;;;;;;;;;24.50;52.40;;;;;;5034719;28;20083;-51
2022/09/17 10:11:19;;;;;;;7.95;1.48;;;24.50;52.00;;;;;;5048826;28;19917;-47
2022/09/17 10:13:44;;;;;;;3.85;1.20;;;24.50;51.90;;;;;;5061836;28;20102;-51
2022/09/17 10:16:28;;;;;;;8.13;1.08;;;24.50;51.90;;;;;;5045247;28;20478;-54
2022/09/17 10:19:02;;;;;;;5.40;0.93;;;24.50;52.20;;;;;;5051786;28;20394;-50
2022/09/17 10:21:34;;;;;;;4.85;0.90;;;24.50;52.20;;;;;;5044899;28;20166;-52
2022/09/17 10:24:02;;;;;;;7.85;1.85;;;24.50;51.90;;;;;;5071603;28;20052;-48
2022/09/17 10:26:35;;;;;;;7.65;1.50;;;24.50;52.80;;;;;;5068484;28;20112;-51
2022/09/17 10:29:11;;;;;;;4.85;1.38;;;24.40;52.40;;;;;;5054334;28;20025;-48
2022/09/17 10:31:56;;;;;;;5.15;1.20;;;24.40;52.90;;;;;;5057847;28;20029;-51
2022/09/17 10:34:26;;;;;;;11.48;2.33;;;24.30;53.40;;;;;;5051213;28;20021;-52
2022/09/17 10:36:52;;;;;;;4.28;1.17;;;24.20;51.30;;;;;;5060150;28;20036;-52
2022/09/17 10:39:43;;;;;;;5.30;1.30;;;24.20;52.50;;;;;;5054084;28;20064;-49
2022/09/17 10:42:15;;;;;;;9.35;1.15;;;24.20;53.50;;;;;;5048595;28;20060;-50
2022/09/17 10:44:53;;;;;;;6.40;2.13;;;24.10;52.70;;;;;;5037602;28;20029;-50
2022/09/17 10:47:30;;;;;;;7.05;1.38;;;24.10;51.80;;;;;;5057934;28;20508;-51
2022/09/17 10:50:15;;;;;;;6.03;1.15;;;24.00;51.30;;;;;;5057840;28;20536;-52
2022/09/17 10:52:47;;;;;;;3.45;1.13;;;24.00;51.40;;;;;;5053748;28;20040;-47
2022/09/17 10:55:34;;;;;;;6.43;1.23;;;24.00;51.70;;;;;;5070658;28;20024;-51
2022/09/17 10:58:06;;;;;;;7.25;1.40;;;24.00;51.60;;;;;;5065782;28;20107;-49
2022/09/17 11:00:41;;;;;;;;;;;24.00;51.70;;;;;;5069121;28;20151;-48
2022/09/17 11:03:21;;;;;;;6.32;1.08;;;24.00;51.90;;;;;;5055761;28;19916;-48
2022/09/17 11:06:15;;;;;;;6.38;1.40;;;23.90;51.70;;;;;;5061093;28;20056;-49
2022/09/17 11:09:02;;;;;;;4.57;1.15;;;23.90;51.70;;;;;;5055806;28;20025;-50
2022/09/17 11:11:32;;;;;;;4.10;1.10;;;23.90;51.50;;;;;;5056559;28;20431;-52
2022/09/17 11:14:34;;;;;;;3.80;1.58;;;23.90;51.50;;;;;;5056376;28;20083;-52
2022/09/17 11:17:19;;;;;;;;;;;23.90;51.50;;;;;;5052665;28;20033;-49
2022/09/17 11:20:07;;;;;;;4.25;1.33;;;23.90;51.50;;;;;;5053072;28;19944;-49
2022/09/17 11:23:03;;;;;;;6.53;1.63;;;23.90;51.50;;;;;;5072957;28;20047;-48
2022/09/17 11:25:54;;;;;;;4.75;1.40;;;23.90;51.90;;;;;;5070138;28;20020;-54
2022/09/17 11:28:42;;;;;;;5.45;1.20;;;23.90;52.00;;;;;;5009741;28;20041;-50
2022/09/17 11:31:23;;;;;;;3.45;1.13;;;23.90;51.80;;;;;;5070933;28;20045;-52
2022/09/17 11:34:01;;;;;;;6.60;1.60;;;23.90;51.50;;;;;;5059997;28;20447;-52
2022/09/17 11:36:36;;;;;;;4.85;1.52;;;23.90;51.70;;;;;;5053381;28;20272;-55
2022/09/17 11:39:15;;;;;;;7.25;1.83;;;24.00;51.70;;;;;;5058678;28;20370;-53
2022/09/17 11:41:45;;;;;;;4.13;1.05;;;24.00;51.80;;;;;;5050965;28;20057;-51
2022/09/17 11:44:29;;;;;;;4.63;1.50;;;24.00;51.20;;;;;;5046438;28;20082;-52
2022/09/17 11:47:22;;;;;;;4.05;1.25;;;24.00;51.50;;;;;;5054305;28;20029;-52
2022/09/17 11:49:54;;;;;;;5.40;1.60;;;24.00;52.00;;;;;;5030561;28;20138;-52
2022/09/17 11:52:25;;;;;;;;;;;24.00;51.60;;;;;;5064290;28;20547;-50
2022/09/17 11:55:22;;;;;;;5.33;1.80;;;24.00;51.90;;;;;;5062680;28;19915;-44
2022/09/17 11:57:56;;;;;;;4.82;1.50;;;24.10;51.60;;;;;;5064308;28;20287;-48
2022/09/17 12:00:22;;;;;;;4.53;1.10;;;24.10;51.50;;;;;;5049272;28;20046;-49
2022/09/17 12:02:59;;;;;;;4.05;1.20;;;24.10;51.40;;;;;;5058034;28;20024;-45
2022/09/17 12:05:30;;;;;;;4.55;1.67;;;24.20;51.70;;;;;;5051261;28;20456;-53
2022/09/17 12:08:04;;;;;;;4.72;1.25;;;24.20;51.20;;;;;;5058797;28;20040;-46
2022/09/17 12:10:41;;;;;;;6.55;1.20;;;24.20;51.10;;;;;;5052848;28;20094;-47
2022/09/17 12:13:17;;;;;;;3.28;1.38;;;24.30;50.90;;;;;;5061768;28;20474;-47
2022/09/17 12:15:48;;;;;;;6.10;1.23;;;24.30;51.00;;;;;;5065223;28;20127;-45
2022/09/17 12:18:45;;;;;;;8.95;1.45;;;24.30;51.10;;;;;;5050945;28;20397;-47
2022/09/17 12:21:15;;;;;;;5.97;1.30;;;24.40;51.30;;;;;;5047167;28;20726;-51
2022/09/17 12:23:46;;;;;;;5.03;1.40;;;24.30;51.70;;;;;;5053157;28;20347;-50
2022/09/17 12:26:12;;;;;;;3.90;1.27;;;24.30;51.90;;;;;;5053360;28;20064;-45
2022/09/17 12:28:49;;;;;;;7.72;1.33;;;24.40;52.00;;;;;;5065141;28;20472;-46
2022/09/17 12:31:39;;;;;;;5.32;1.17;;;24.40;52.00;;;;;;5056821;28;20033;-48
2022/09/17 12:34:35;;;;;;;7.18;1.48;;;24.40;52.10;;;;;;5060239;28;20029;-48
2022/09/17 12:37:03;;;;;;;4.65;1.20;;;24.50;52.50;;;;;;5059431;28;20067;-45
2022/09/17 12:39:41;;;;;;;7.45;1.20;;;24.50;51.10;;;;;;5064138;28;20105;-47
2022/09/17 12:42:21;;;;;;;14.30;2.35;;;24.50;51.70;;;;;;5050709;28;20025;-47
2022/09/17 12:45:35;;;;;;;7.68;1.85;;;24.50;52.20;;;;;;5053129;28;20364;-51
2022/09/17 12:48:12;;;;;;;7.93;1.42;;;24.50;50.80;;;;;;5016395;28;20529;-49
2022/09/17 12:50:43;;;;;;;13.15;2.42;;;24.50;51.90;;;;;;5061975;28;20100;-48
2022/09/17 12:53:18;;;;;;;7.22;1.50;;;24.50;52.50;;;;;;5073150;28;20050;-46
2022/09/17 12:56:26;;;;;;;6.60;1.85;;;24.50;52.80;;;;;;5072646;28;20469;-47
2022/09/17 12:59:00;;;;;;;4.85;1.05;;;24.50;51.80;;;;;;5069406;28;20121;-46
2022/09/17 13:01:51;;;;;;;3.90;1.30;;;24.50;51.40;;;;;;5061620;28;20043;-47
2022/09/17 13:05:00;;;;;;;10.97;2.03;;;24.50;52.20;;;;;;5051527;28;20028;-44
2022/09/17 13:07:31;;;;;;;9.23;1.50;;;24.50;52.20;;;;;;5045502;28;20017;-48
2022/09/17 13:10:12;;;;;;;4.63;1.17;;;24.50;52.80;;;;;;5050810;28;20090;-54
2022/09/17 13:12:51;;;;;;;7.40;1.13;;;24.40;52.80;;;;;;5065256;28;20048;-45
2022/09/17 13:15:19;;;;;;;6.72;2.28;;;24.40;52.40;;;;;;5065260;28;20033;-45
2022/09/17 13:18:05;;;;;;;4.22;1.45;;;24.40;52.30;;;;;;5072947;28;20056;-46